Accueil
METAR-TAF:

METAR-TAF

Aéroports :

Aéroport de Hiroshima

Hiroshima, Japon

latitude: 34-26N, longitude: 132-55E, altitude: 331 m

Observation

Le bulletin a été fait il y a 48 minutes, à 08:00 UTC
Vent 6 kt de nord/nord-ouest
Température 26°C
Humidité 48%
Pression 1014 hPa
Visibilité 10 km ou plus
Quelques nuages à une hauteur de 3500 ft
Nuages fragmentés

METAR: RJOA 220800Z 33006KT 9999 FEW035 BKN/// 26/14 Q1014

Heure: 17:48 (08:48 UTC)

Prévision

Le bulletin a été fait il y a 3 heures et 43 minutes, à 05:05 UTC
Prévision valable du 22 à 06 UTC au 23 à 12 UTC
Vent 6 kt de nord/nord-ouest
Visibilité 10 km ou plus
Quelques nuages à une hauteur de 3000 ft
Evoluant progressivement
du 22 à 21 UTC au 23 à 00 UTC
Vent 6 kt de sud/sud-est
Evoluant progressivement
du 23 à 09 UTC au 23 à 12 UTC
Vent 4 kt de nord-ouest

TAF: RJOA 220505Z 2206/2312 34006KT 9999 FEW030 BECMG 2221/2300 15006KT BECMG 2309/2312 32004KT

Observations et prévisions météorologiques de plus de 4000 aéroports (messages METAR et TAF).

Les stations disponibles sont représentées par des disques jaunes et rouges sur la carte.

Passer la souris dessus pour voir le nom de la station.

Cliquer dessus pour voir les observations et prévisions météorologiques.

Pour changer de carte: cliquez sur les boutons verts avec une croix noire pour zoomer, sur le bouton vert avec un tiret pour effectuer un zoom arrière, ou sur les flèches vertes pour les cartes adjacentes.


METAR-TAF: